Time;durP1;ratioP1;P1;durP2;ratioP2;P2;SDS_P1;SDS_P2;PMS_P1;PMS_P2;Temp;Humidity;BMP_temperature;BMP_pressure;BME280_temperature;BME280_humidity;BME280_pressure;Samples;Min_cycle;Max_cycle;Signal;HPM_P1;HPM_P2
2022/11/15 00:04:20;;;;;;;1.60;1.35;;;14.70;80.10;;;;;;21156463;28;20492;-66
2022/11/15 00:14:21;;;;;;;1.95;1.35;;;14.70;80.10;;;;;;21174305;28;20051;-66
2022/11/15 00:24:23;;;;;;;3.58;1.13;;;14.70;80.00;;;;;;21173784;28;20051;-62
2022/11/15 00:34:24;;;;;;;2.90;1.08;;;14.70;79.70;;;;;;21172893;28;20051;-64
2022/11/15 00:44:26;;;;;;;2.58;1.50;;;14.70;79.90;;;;;;21169847;28;20132;-66
2022/11/15 00:54:27;;;;;;;1.90;1.27;;;14.70;80.10;;;;;;21170831;28;20507;-65
2022/11/15 01:04:29;;;;;;;1.90;1.40;;;14.70;80.10;;;;;;21152656;28;20472;-65
2022/11/15 01:14:30;;;;;;;3.22;1.17;;;14.70;80.30;;;;;;21168413;28;20048;-62
2022/11/15 01:24:32;;;;;;;2.38;1.40;;;14.70;80.50;;;;;;21170101;28;20052;-67
2022/11/15 01:34:34;;;;;;;3.13;1.50;;;14.70;80.60;;;;;;21167245;28;20058;-66
2022/11/15 01:44:44;;;;;;;2.65;1.67;;;14.70;80.80;;;;;;21166517;28;20518;-65
2022/11/15 01:54:47;;;;;;;3.03;1.60;;;14.70;80.80;;;;;;21165650;28;20047;-65
2022/11/15 02:04:48;;;;;;;1.75;1.40;;;14.70;81.00;;;;;;21164878;28;20048;-65
2022/11/15 02:14:54;;;;;;;2.78;1.23;;;14.70;80.50;;;;;;21163971;28;20059;-65
2022/11/15 02:25:14;;;;;;;1.70;1.20;;;14.80;80.20;;;;;;21163566;28;20053;-65
2022/11/15 02:35:28;;;;;;;2.55;1.05;;;14.80;80.20;;;;;;21164423;28;20139;-65
2022/11/15 02:45:36;;;;;;;1.65;0.90;;;14.70;80.50;;;;;;21163429;28;20067;-65
2022/11/15 02:55:58;;;;;;;2.10;1.25;;;14.80;80.40;;;;;;21162621;28;20517;-66
2022/11/15 03:06:09;;;;;;;2.70;1.25;;;14.70;80.80;;;;;;21168676;28;20056;-61
2022/11/15 03:16:15;;;;;;;2.28;1.20;;;14.70;80.70;;;;;;21179143;28;20044;-67
2022/11/15 03:26:21;;;;;;;1.65;1.17;;;14.70;80.80;;;;;;21177934;28;20039;-60
2022/11/15 03:36:25;;;;;;;1.77;1.02;;;14.70;80.60;;;;;;21176481;28;20044;-65
2022/11/15 03:46:38;;;;;;;2.50;1.00;;;14.70;80.40;;;;;;21176100;28;20048;-64
2022/11/15 03:56:40;;;;;;;2.70;1.60;;;14.70;80.30;;;;;;21175199;28;20047;-66
2022/11/15 04:06:42;;;;;;;2.28;1.05;;;14.70;79.90;;;;;;21174301;28;20046;-61
2022/11/15 04:16:44;;;;;;;1.70;1.00;;;14.70;79.90;;;;;;21173527;28;20116;-66
2022/11/15 04:26:45;;;;;;;1.33;1.00;;;14.70;80.00;;;;;;21172734;28;20510;-62
2022/11/15 04:47:07;;;;;;;2.50;1.45;;;14.70;79.40;;;;;;21171044;28;20105;-65
2022/11/15 04:57:09;;;;;;;2.85;1.42;;;14.60;79.80;;;;;;21169339;28;20140;-65
2022/11/15 05:07:11;;;;;;;1.65;1.17;;;14.70;79.60;;;;;;21169913;28;20403;-61
2022/11/15 05:17:13;;;;;;;2.00;1.27;;;14.70;79.70;;;;;;21168597;28;20043;-66
2022/11/15 05:27:15;;;;;;;1.58;1.02;;;14.70;79.50;;;;;;21167794;28;20381;-65
2022/11/15 05:37:17;;;;;;;2.30;1.20;;;14.50;79.90;;;;;;21167774;28;20050;-67
2022/11/15 05:47:26;;;;;;;2.00;1.50;;;14.60;79.50;;;;;;21166024;28;20051;-63
2022/11/15 05:57:28;;;;;;;2.67;1.75;;;14.70;79.90;;;;;;21165777;28;20500;-62
2022/11/15 06:07:30;;;;;;;2.92;2.10;;;14.70;80.10;;;;;;21164760;28;20047;-62
2022/11/15 06:17:31;;;;;;;2.92;1.92;;;14.70;80.50;;;;;;21164307;28;20122;-62
2022/11/15 06:27:34;;;;;;;2.42;1.42;;;14.70;81.10;;;;;;21163496;28;20522;-61
2022/11/15 06:37:35;;;;;;;2.90;1.25;;;14.60;80.90;;;;;;21164128;28;20130;-61
2022/11/15 06:47:45;;;;;;;1.77;1.30;;;14.70;80.70;;;;;;21180099;28;20051;-61
2022/11/15 06:57:52;;;;;;;1.98;1.20;;;14.70;80.40;;;;;;21179357;28;20126;-61
2022/11/15 07:07:54;;;;;;;1.35;0.98;;;14.80;79.60;;;;;;21179498;28;20139;-63
2022/11/15 07:17:59;;;;;;;2.00;1.20;;;14.80;79.70;;;;;;21178829;28;20048;-62
2022/11/15 07:28:01;;;;;;;1.83;1.02;;;14.70;80.00;;;;;;21158294;28;20051;-62
2022/11/15 07:38:03;;;;;;;2.30;1.08;;;14.70;79.70;;;;;;21175784;28;20047;-62
2022/11/15 07:48:05;;;;;;;2.45;1.40;;;14.80;79.80;;;;;;21175262;28;20061;-63
2022/11/15 07:58:11;;;;;;;4.43;2.22;;;14.80;81.20;;;;;;21174382;28;20108;-62
2022/11/15 08:08:13;;;;;;;2.55;1.40;;;14.90;81.40;;;;;;21173947;28;20051;-62
2022/11/15 08:18:16;;;;;;;2.28;1.65;;;14.90;81.20;;;;;;21172866;28;20048;-62
2022/11/15 08:28:17;;;;;;;2.92;1.50;;;15.10;80.20;;;;;;21173152;28;20051;-62
2022/11/15 08:38:19;;;;;;;2.80;1.58;;;15.10;80.20;;;;;;21171901;28;20081;-63
2022/11/15 08:48:20;;;;;;;2.13;1.10;;;15.20;80.00;;;;;;21170921;28;20059;-63
2022/11/15 08:58:22;;;;;;;3.83;1.55;;;15.20;80.00;;;;;;21169879;28;20051;-62
2022/11/15 09:08:24;;;;;;;3.08;1.50;;;15.30;80.30;;;;;;21168231;28;20465;-62
2022/11/15 09:18:27;;;;;;;2.28;1.08;;;15.30;80.80;;;;;;21168075;28;20044;-63
2022/11/15 09:28:29;;;;;;;2.83;1.42;;;15.50;80.20;;;;;;21166743;28;20095;-64
2022/11/15 09:38:32;;;;;;;2.85;1.58;;;15.50;79.50;;;;;;21166653;28;20043;-63
2022/11/15 09:48:48;;;;;;;1.63;0.80;;;15.70;78.30;;;;;;21166782;28;20055;-59
2022/11/15 09:59:03;;;;;;;2.00;1.08;;;15.70;75.50;;;;;;21164910;28;20400;-64
2022/11/15 10:09:38;;;;;;;2.72;1.25;;;15.90;75.30;;;;;;21162908;28;20104;-60
2022/11/15 10:20:05;;;;;;;3.83;1.10;;;16.40;73.00;;;;;;21159719;28;20531;-61
2022/11/15 10:30:16;;;;;;;2.00;0.90;;;16.90;70.30;;;;;;21161277;28;20111;-62
2022/11/15 10:40:22;;;;;;;2.40;0.70;;;17.10;70.20;;;;;;21161743;28;20093;-59
2022/11/15 10:50:32;;;;;;;2.53;0.70;;;17.10;68.70;;;;;;21161867;28;20144;-62
2022/11/15 11:00:38;;;;;;;1.95;1.15;;;17.20;69.10;;;;;;21161149;28;20392;-60
2022/11/15 11:10:55;;;;;;;2.20;1.33;;;17.40;68.40;;;;;;21161090;28;20097;-62
2022/11/15 11:21:03;;;;;;;5.55;1.20;;;17.40;67.60;;;;;;21160990;28;20040;-61
2022/11/15 11:31:32;;;;;;;4.05;1.38;;;17.50;66.90;;;;;;21173527;28;20051;-58
2022/11/15 11:41:49;;;;;;;4.53;1.15;;;17.40;66.60;;;;;;21175753;28;20556;-63
2022/11/15 11:52:20;;;;;;;8.75;1.55;;;17.30;67.40;;;;;;21174029;28;20117;-61
2022/11/15 12:02:33;;;;;;;3.92;1.00;;;17.60;67.70;;;;;;21152694;28;20089;-58
2022/11/15 12:12:55;;;;;;;4.93;1.17;;;17.40;66.00;;;;;;21172821;28;20074;-67
2022/11/15 12:23:13;;;;;;;5.60;3.67;;;17.30;66.30;;;;;;21171580;28;20047;-66
2022/11/15 12:33:36;;;;;;;5.90;1.23;;;17.40;64.20;;;;;;21170748;28;20475;-65
2022/11/15 12:43:45;;;;;;;3.58;0.98;;;17.90;60.70;;;;;;21185830;28;20051;-64
2022/11/15 12:53:47;;;;;;;4.50;1.50;;;17.90;61.40;;;;;;21178507;28;20055;-63
2022/11/15 13:04:21;;;;;;;9.93;6.32;;;17.90;58.60;;;;;;21167444;28;20082;-58
2022/11/15 13:14:42;;;;;;;;;;;17.90;60.00;;;;;;21167821;28;20071;-64
2022/11/15 13:24:43;;;;;;;3.17;1.10;;;17.80;58.70;;;;;;21167389;28;19920;-59
2022/11/15 13:34:52;;;;;;;5.10;1.55;;;17.40;58.30;;;;;;21148463;28;20535;-60
2022/11/15 13:44:59;;;;;;;3.58;0.85;;;17.10;59.80;;;;;;21165192;28;20056;-59
2022/11/15 13:55:15;;;;;;;3.67;1.70;;;17.00;60.60;;;;;;21164108;28;20052;-62
2022/11/15 14:05:24;;;;;;;5.75;1.65;;;17.40;60.00;;;;;;21164955;28;20066;-61
2022/11/15 14:15:36;;;;;;;7.38;1.45;;;17.20;60.90;;;;;;21164334;28;20083;-62
2022/11/15 14:25:38;;;;;;;3.83;1.15;;;17.10;61.90;;;;;;21162645;28;20554;-61
2022/11/15 14:35:39;;;;;;;4.88;1.50;;;17.10;62.10;;;;;;21164294;28;20097;-63
2022/11/15 14:45:41;;;;;;;3.42;1.55;;;17.20;62.80;;;;;;21162468;28;20047;-62
2022/11/15 14:55:43;;;;;;;2.40;1.15;;;17.20;62.70;;;;;;21162484;28;20495;-62
2022/11/15 15:05:44;;;;;;;5.13;1.85;;;17.10;63.40;;;;;;21393846;22;20359;-58
2022/11/15 15:15:47;;;;;;;3.75;0.90;;;16.90;64.80;;;;;;21110081;28;20155;-63
2022/11/15 15:25:48;;;;;;;3.35;1.13;;;16.80;66.40;;;;;;21090580;28;20048;-59
2022/11/15 15:35:50;;;;;;;3.35;1.05;;;16.90;67.00;;;;;;21230759;22;20101;-63
2022/11/15 15:45:52;;;;;;;4.72;1.40;;;16.80;67.90;;;;;;21068750;28;20418;-60
2022/11/15 15:55:53;;;;;;;6.47;1.42;;;16.50;69.30;;;;;;21086640;28;20052;-58
2022/11/15 16:05:54;;;;;;;8.23;1.90;;;16.50;70.50;;;;;;21087130;28;20044;-57
2022/11/15 16:16:12;;;;;;;2.90;1.48;;;16.50;72.20;;;;;;21203888;22;20052;-60
2022/11/15 16:26:28;;;;;;;4.38;2.08;;;16.50;73.20;;;;;;20831302;28;20115;-58
2022/11/15 16:36:32;;;;;;;5.53;1.90;;;16.40;74.90;;;;;;20835503;28;20053;-60
2022/11/15 16:46:34;;;;;;;;;;;15.90;77.80;;;;;;20835752;28;20074;-63
2022/11/15 16:56:35;;;;;;;2.90;1.30;;;15.60;79.10;;;;;;20834638;28;19927;-58
2022/11/15 17:17:53;;;;;;;3.33;1.40;;;15.60;80.50;;;;;;20726953;28;20054;-58
2022/11/15 17:27:55;;;;;;;6.85;2.13;;;15.50;81.00;;;;;;20749471;28;20497;-64
2022/11/15 17:37:56;;;;;;;5.95;2.40;;;15.50;81.40;;;;;;20750047;28;20053;-65
2022/11/15 17:47:58;;;;;;;7.93;2.45;;;15.50;81.30;;;;;;20749469;28;20050;-60
2022/11/15 17:57:59;;;;;;;3.58;2.20;;;15.50;81.40;;;;;;20751094;28;20053;-63
2022/11/15 18:08:01;;;;;;;6.22;2.30;;;15.40;81.50;;;;;;20699723;28;20053;-61
2022/11/15 18:29:18;;;;;;;;;;;16.00;78.60;;;;;;20666383;28;20509;-60
2022/11/15 18:39:19;;;;;;;5.03;2.20;;;15.70;80.10;;;;;;20667687;28;20369;-60
2022/11/15 18:49:21;;;;;;;4.22;2.38;;;15.60;81.10;;;;;;20649739;28;20050;-60
2022/11/15 18:59:23;;;;;;;3.05;2.38;;;15.60;81.90;;;;;;20667613;28;20050;-58
2022/11/15 19:09:31;;;;;;;4.72;1.70;;;15.50;82.50;;;;;;20666835;28;20505;-61
2022/11/15 19:19:32;;;;;;;5.55;3.72;;;15.50;83.10;;;;;;20666692;28;20479;-60
2022/11/15 19:29:34;;;;;;;2.90;2.10;;;15.40;83.60;;;;;;20667123;28;20054;-61
2022/11/15 19:39:35;;;;;;;4.40;3.10;;;15.40;83.50;;;;;;20665876;28;20047;-61
2022/11/15 19:49:37;;;;;;;4.85;2.92;;;15.40;83.90;;;;;;20674486;28;20046;-62
2022/11/15 19:59:38;;;;;;;5.80;4.00;;;15.30;84.10;;;;;;20680525;28;20046;-60
2022/11/15 20:09:39;;;;;;;4.30;3.28;;;15.30;84.60;;;;;;20679301;28;20406;-58
2022/11/15 20:19:41;;;;;;;7.30;4.28;;;15.30;84.50;;;;;;20677604;28;20089;-59
2022/11/15 20:29:43;;;;;;;5.32;4.55;;;15.30;84.70;;;;;;20676765;28;20054;-57
2022/11/15 20:39:45;;;;;;;6.22;3.50;;;15.40;84.80;;;;;;20676094;28;20042;-60
2022/11/15 20:49:48;;;;;;;4.40;2.88;;;15.40;84.90;;;;;;20675853;28;20046;-58
2022/11/15 20:59:49;;;;;;;4.72;2.95;;;15.40;85.30;;;;;;20671896;28;20426;-60
2022/11/15 21:20:11;;;;;;;5.03;3.10;;;15.40;85.60;;;;;;20673629;28;20453;-60
2022/11/15 21:30:14;;;;;;;3.45;2.30;;;15.40;85.70;;;;;;20671967;28;20054;-60
2022/11/15 21:40:15;;;;;;;3.53;2.42;;;15.40;85.80;;;;;;20670648;28;20055;-60
2022/11/15 21:50:17;;;;;;;6.07;3.47;;;15.40;85.80;;;;;;20671163;28;20468;-60
2022/11/15 22:10:39;;;;;;;4.82;2.97;;;15.40;85.70;;;;;;20670429;28;20406;-61
2022/11/15 22:20:41;;;;;;;4.72;2.72;;;15.50;85.60;;;;;;20668767;28;20042;-59
2022/11/15 22:30:51;;;;;;;3.65;2.80;;;15.50;85.60;;;;;;20668870;28;20050;-60
2022/11/15 22:40:52;;;;;;;3.40;2.78;;;15.50;85.40;;;;;;20667794;28;20047;-59
2022/11/15 22:50:54;;;;;;;3.63;2.33;;;15.50;85.30;;;;;;20668444;28;20117;-57
2022/11/15 23:01:02;;;;;;;1.80;1.50;;;15.50;84.90;;;;;;20667496;28;20057;-57
2022/11/15 23:42:18;;;;;;;1.77;1.10;;;15.30;84.10;;;;;;20680536;28;20054;-58
2022/11/15 23:52:21;;;;;;;1.63;1.10;;;15.40;83.50;;;;;;20680790;28;20057;-60
